SBI1138 UIII-UHBB
Flight info
| Callsign | SBI1138 |
|---|---|
| Flight time | N/A |
| Altitude | 35000 |
| Route | GOLOS A810 KUDAR P873 NIKTO G229 NINON B811 WZ |
| Aircraft | A320/M-SDE3FGHIRWY/LB1 |
Departure
| Time | N/A |
|---|---|
| Airport | Irkutsk International Airport (UIII) |
Arrival
| Time | 2026-04-16 20:07 |
|---|---|
| Airport | Ignatyevo Airport (UHBB) |
| Time | Latitude | Longitude | Altitude | Speed | Heading |
|---|---|---|---|---|---|
| 2026-04-16 18:55 | 53.57424 | 117.78159 | 35024 ft | 486 kts | 83° |
| 2026-04-16 18:55 | 53.57792 | 117.83811 | 35022 ft | 486 kts | 84° |
| 2026-04-16 18:55 | 53.58526 | 117.95133 | 35022 ft | 487 kts | 84° |
| 2026-04-16 18:56 | 53.59244 | 118.06375 | 35017 ft | 486 kts | 84° |
| 2026-04-16 18:56 | 53.59959 | 118.17699 | 35020 ft | 487 kts | 84° |
| 2026-04-16 18:57 | 53.60668 | 118.29029 | 35027 ft | 487 kts | 84° |
| 2026-04-16 18:58 | 53.61698 | 118.46033 | 35028 ft | 486 kts | 84° |
| 2026-04-16 18:58 | 53.62372 | 118.57370 | 35032 ft | 486 kts | 84° |
| 2026-04-16 18:59 | 53.63036 | 118.68626 | 35034 ft | 486 kts | 84° |
| 2026-04-16 18:59 | 53.63683 | 118.79972 | 35033 ft | 486 kts | 85° |
| 2026-04-16 19:00 | 53.64315 | 118.91307 | 35027 ft | 486 kts | 85° |
| 2026-04-16 19:00 | 53.64952 | 119.02654 | 35029 ft | 486 kts | 85° |
| 2026-04-16 19:01 | 53.65580 | 119.13994 | 35021 ft | 486 kts | 85° |
| 2026-04-16 19:01 | 53.66087 | 119.23423 | 35025 ft | 486 kts | 85° |
| 2026-04-16 19:02 | 53.66782 | 119.36613 | 35036 ft | 486 kts | 85° |
| 2026-04-16 19:02 | 53.67369 | 119.47950 | 35030 ft | 485 kts | 85° |
| 2026-04-16 19:03 | 53.67946 | 119.59285 | 35032 ft | 485 kts | 85° |
| 2026-04-16 19:03 | 53.68416 | 119.68706 | 35033 ft | 485 kts | 86° |
| 2026-04-16 19:04 | 53.68939 | 119.80048 | 35024 ft | 485 kts | 86° |
| 2026-04-16 19:04 | 53.69472 | 119.93234 | 35027 ft | 485 kts | 87° |
| 2026-04-16 19:05 | 53.69836 | 120.02744 | 35033 ft | 485 kts | 87° |
| 2026-04-16 19:05 | 53.70275 | 120.14014 | 35021 ft | 484 kts | 87° |
| 2026-04-16 19:06 | 53.70719 | 120.25352 | 35027 ft | 484 kts | 87° |
| 2026-04-16 19:06 | 53.71144 | 120.36698 | 35021 ft | 484 kts | 87° |
| 2026-04-16 19:07 | 53.71562 | 120.48042 | 35021 ft | 484 kts | 87° |
| 2026-04-16 19:07 | 53.71967 | 120.59396 | 35029 ft | 484 kts | 88° |
| 2026-04-16 19:08 | 53.72354 | 120.70747 | 35019 ft | 484 kts | 88° |
| 2026-04-16 19:08 | 53.72737 | 120.82103 | 35017 ft | 485 kts | 88° |
| 2026-04-16 19:09 | 53.73115 | 120.93391 | 35019 ft | 485 kts | 88° |
| 2026-04-16 19:09 | 53.73484 | 121.04762 | 35017 ft | 485 kts | 88° |
| 2026-04-16 19:10 | 53.73832 | 121.16148 | 35014 ft | 485 kts | 88° |
| 2026-04-16 19:10 | 53.74169 | 121.27531 | 35015 ft | 485 kts | 88° |
| 2026-04-16 19:11 | 53.74494 | 121.38920 | 35013 ft | 485 kts | 88° |
| 2026-04-16 19:11 | 53.74811 | 121.50309 | 35013 ft | 486 kts | 88° |
| 2026-04-16 19:12 | 53.75119 | 121.61636 | 35012 ft | 486 kts | 88° |
| 2026-04-16 19:12 | 53.75417 | 121.73036 | 35012 ft | 486 kts | 89° |
| 2026-04-16 19:13 | 53.75703 | 121.84443 | 35007 ft | 486 kts | 89° |
| 2026-04-16 19:13 | 53.75980 | 121.95861 | 35002 ft | 486 kts | 89° |
| 2026-04-16 19:14 | 53.76246 | 122.07278 | 35002 ft | 486 kts | 89° |
| 2026-04-16 19:14 | 53.76510 | 122.18707 | 35003 ft | 487 kts | 89° |
| 2026-04-16 19:15 | 53.76794 | 122.30134 | 35003 ft | 487 kts | 89° |
| 2026-04-16 19:15 | 53.77079 | 122.41566 | 35005 ft | 487 kts | 89° |
| 2026-04-16 19:16 | 53.77340 | 122.52929 | 35006 ft | 487 kts | 89° |
| 2026-04-16 19:16 | 53.77596 | 122.64377 | 35005 ft | 487 kts | 89° |
| 2026-04-16 19:17 | 53.77838 | 122.75822 | 35006 ft | 487 kts | 89° |
| 2026-04-16 19:17 | 53.78067 | 122.87273 | 35008 ft | 487 kts | 89° |
| 2026-04-16 19:18 | 53.78282 | 122.98727 | 35005 ft | 488 kts | 89° |
| 2026-04-16 19:18 | 53.78488 | 123.10114 | 35006 ft | 488 kts | 89° |
| 2026-04-16 19:19 | 53.78695 | 123.21577 | 34997 ft | 488 kts | 89° |
| 2026-04-16 19:19 | 53.78874 | 123.33043 | 35000 ft | 488 kts | 90° |
| 2026-04-16 19:20 | 53.79002 | 123.44516 | 34993 ft | 487 kts | 94° |
| 2026-04-16 19:20 | 53.77962 | 123.55766 | 34992 ft | 484 kts | 104° |
| 2026-04-16 19:21 | 53.76543 | 123.66829 | 34983 ft | 485 kts | 104° |
| 2026-04-16 19:21 | 53.75101 | 123.77959 | 34984 ft | 485 kts | 104° |
| 2026-04-16 19:22 | 53.73643 | 123.89085 | 34984 ft | 485 kts | 104° |
| 2026-04-16 19:22 | 53.72184 | 124.00219 | 34981 ft | 486 kts | 104° |
| 2026-04-16 19:23 | 53.70718 | 124.11356 | 34981 ft | 486 kts | 105° |
| 2026-04-16 19:23 | 53.69243 | 124.22477 | 34972 ft | 486 kts | 105° |
| 2026-04-16 19:24 | 53.67759 | 124.33515 | 34969 ft | 486 kts | 105° |
| 2026-04-16 19:24 | 53.66244 | 124.44627 | 34976 ft | 486 kts | 105° |
| 2026-04-16 19:25 | 53.64722 | 124.55737 | 34968 ft | 486 kts | 105° |
| 2026-04-16 19:25 | 53.63207 | 124.66843 | 34972 ft | 486 kts | 105° |
| 2026-04-16 19:26 | 53.61670 | 124.77930 | 34961 ft | 486 kts | 105° |
| 2026-04-16 19:26 | 53.60130 | 124.88952 | 34959 ft | 487 kts | 105° |
| 2026-04-16 19:27 | 53.58573 | 125.00042 | 34967 ft | 487 kts | 106° |
| 2026-04-16 19:27 | 53.57011 | 125.11125 | 34966 ft | 487 kts | 106° |
| 2026-04-16 19:28 | 53.55431 | 125.22207 | 34963 ft | 487 kts | 106° |
| 2026-04-16 19:28 | 53.53843 | 125.33282 | 34966 ft | 487 kts | 106° |
| 2026-04-16 19:29 | 53.52247 | 125.44274 | 34959 ft | 488 kts | 106° |
| 2026-04-16 19:29 | 53.50630 | 125.55343 | 34960 ft | 488 kts | 106° |
| 2026-04-16 19:30 | 53.49000 | 125.66398 | 34955 ft | 488 kts | 107° |
| 2026-04-16 19:30 | 53.46570 | 125.76901 | 34949 ft | 480 kts | 124° |
| 2026-04-16 19:31 | 53.42481 | 125.85541 | 34948 ft | 469 kts | 142° |
| 2026-04-16 19:31 | 53.37442 | 125.92384 | 34948 ft | 466 kts | 146° |
| 2026-04-16 19:32 | 53.32387 | 125.99079 | 34941 ft | 467 kts | 146° |
| 2026-04-16 19:32 | 53.27287 | 126.05810 | 34946 ft | 467 kts | 147° |
| 2026-04-16 19:33 | 53.22185 | 126.12527 | 34951 ft | 467 kts | 147° |
| 2026-04-16 19:33 | 53.17069 | 126.19230 | 34956 ft | 468 kts | 147° |
| 2026-04-16 19:34 | 53.11956 | 126.25918 | 34960 ft | 468 kts | 147° |
| 2026-04-16 19:34 | 53.06836 | 126.32610 | 34964 ft | 468 kts | 147° |
| 2026-04-16 19:35 | 53.01707 | 126.39262 | 34965 ft | 468 kts | 147° |
| 2026-04-16 19:35 | 52.96610 | 126.45847 | 34968 ft | 468 kts | 147° |
| 2026-04-16 19:36 | 52.91475 | 126.52469 | 34968 ft | 467 kts | 147° |
| 2026-04-16 19:36 | 52.86344 | 126.59092 | 34981 ft | 467 kts | 147° |
| 2026-04-16 19:37 | 52.81211 | 126.65678 | 34973 ft | 467 kts | 148° |
| 2026-04-16 19:37 | 52.76071 | 126.72250 | 34971 ft | 467 kts | 148° |
| 2026-04-16 19:38 | 52.70966 | 126.78764 | 34971 ft | 467 kts | 148° |
| 2026-04-16 19:38 | 52.65824 | 126.85297 | 34972 ft | 467 kts | 148° |
| 2026-04-16 19:39 | 52.60682 | 126.91814 | 34973 ft | 467 kts | 148° |
| 2026-04-16 19:39 | 52.55536 | 126.98312 | 34972 ft | 466 kts | 148° |
| 2026-04-16 19:40 | 52.50388 | 127.04810 | 34975 ft | 466 kts | 148° |
| 2026-04-16 19:40 | 52.45238 | 127.11276 | 34985 ft | 466 kts | 148° |
| 2026-04-16 19:41 | 52.40078 | 127.17708 | 34975 ft | 466 kts | 148° |
| 2026-04-16 19:41 | 52.34944 | 127.24060 | 34984 ft | 466 kts | 149° |
| 2026-04-16 19:42 | 52.29777 | 127.30435 | 34972 ft | 465 kts | 149° |
| 2026-04-16 19:42 | 52.24606 | 127.36799 | 34965 ft | 465 kts | 149° |
| 2026-04-16 19:43 | 52.19433 | 127.43144 | 34972 ft | 465 kts | 149° |
| 2026-04-16 19:43 | 52.14249 | 127.49468 | 34970 ft | 465 kts | 149° |
| 2026-04-16 19:44 | 52.09067 | 127.55781 | 34970 ft | 465 kts | 149° |
| 2026-04-16 19:44 | 52.03881 | 127.62070 | 34972 ft | 464 kts | 151° |
| 2026-04-16 19:45 | 51.98295 | 127.66771 | 34967 ft | 449 kts | 168° |
| 2026-04-16 19:45 | 51.92279 | 127.68897 | 34965 ft | 441 kts | 177° |
| 2026-04-16 19:46 | 51.86228 | 127.70554 | 34963 ft | 441 kts | 176° |
| 2026-04-16 19:46 | 51.80170 | 127.72241 | 34962 ft | 442 kts | 176° |
| 2026-04-16 19:47 | 51.74113 | 127.73915 | 34861 ft | 442 kts | 176° |
| 2026-04-16 19:47 | 51.71087 | 127.74743 | 34622 ft | 441 kts | 177° |
| 2026-04-16 19:47 | 51.68061 | 127.75569 | 34386 ft | 440 kts | 177° |
| 2026-04-16 19:47 | 51.65044 | 127.76391 | 33895 ft | 441 kts | 177° |
| 2026-04-16 19:48 | 51.61992 | 127.77216 | 32818 ft | 447 kts | 177° |
| 2026-04-16 19:48 | 51.58959 | 127.78036 | 31876 ft | 449 kts | 178° |
| 2026-04-16 19:48 | 51.55867 | 127.78874 | 30935 ft | 452 kts | 178° |
| 2026-04-16 19:48 | 51.52773 | 127.79716 | 30079 ft | 451 kts | 179° |
| 2026-04-16 19:49 | 51.49675 | 127.80560 | 29170 ft | 449 kts | 179° |
| 2026-04-16 19:49 | 51.46609 | 127.81403 | 28394 ft | 444 kts | 179° |
| 2026-04-16 19:49 | 51.43584 | 127.82238 | 27741 ft | 438 kts | 179° |
| 2026-04-16 19:49 | 51.40604 | 127.83059 | 27107 ft | 431 kts | 179° |
| 2026-04-16 19:50 | 51.37669 | 127.83861 | 26457 ft | 425 kts | 180° |
| 2026-04-16 19:50 | 51.34768 | 127.84642 | 25841 ft | 420 kts | 180° |
| 2026-04-16 19:50 | 51.31901 | 127.85407 | 25228 ft | 416 kts | 180° |
| 2026-04-16 19:50 | 51.29100 | 127.86154 | 24629 ft | 412 kts | 180° |
| 2026-04-16 19:51 | 51.26281 | 127.86913 | 24024 ft | 409 kts | 180° |
| 2026-04-16 19:51 | 51.23488 | 127.87667 | 23413 ft | 406 kts | 180° |
| 2026-04-16 19:51 | 51.20717 | 127.88411 | 22782 ft | 401 kts | 180° |
| 2026-04-16 19:51 | 51.17984 | 127.89143 | 22244 ft | 395 kts | 180° |
| 2026-04-16 19:52 | 51.15290 | 127.89864 | 21724 ft | 390 kts | 180° |
| 2026-04-16 19:52 | 51.12628 | 127.90574 | 21236 ft | 385 kts | 180° |
| 2026-04-16 19:52 | 51.10003 | 127.91274 | 20750 ft | 380 kts | 179° |
| 2026-04-16 19:52 | 51.07410 | 127.91967 | 20292 ft | 375 kts | 179° |
| 2026-04-16 19:53 | 51.04850 | 127.92650 | 19845 ft | 371 kts | 179° |
| 2026-04-16 19:53 | 51.02348 | 127.93316 | 19410 ft | 367 kts | 179° |
| 2026-04-16 19:53 | 50.99842 | 127.93979 | 18975 ft | 364 kts | 179° |
| 2026-04-16 19:53 | 50.97353 | 127.94636 | 18535 ft | 361 kts | 179° |
| 2026-04-16 19:54 | 50.94884 | 127.95287 | 18059 ft | 359 kts | 179° |
| 2026-04-16 19:54 | 50.92426 | 127.95936 | 17590 ft | 357 kts | 179° |
| 2026-04-16 19:54 | 50.89987 | 127.96581 | 17132 ft | 355 kts | 178° |
| 2026-04-16 19:54 | 50.87558 | 127.97222 | 16658 ft | 353 kts | 178° |
| 2026-04-16 19:55 | 50.85145 | 127.97857 | 16195 ft | 351 kts | 178° |
| 2026-04-16 19:55 | 50.82742 | 127.98492 | 15716 ft | 350 kts | 178° |
| 2026-04-16 19:55 | 50.80344 | 127.99124 | 15218 ft | 349 kts | 177° |
| 2026-04-16 19:55 | 50.77950 | 127.99751 | 14722 ft | 348 kts | 177° |
| 2026-04-16 19:56 | 50.75592 | 128.00368 | 14234 ft | 348 kts | 177° |
| 2026-04-16 19:56 | 50.73207 | 128.00993 | 13732 ft | 348 kts | 176° |
| 2026-04-16 19:56 | 50.70821 | 128.01622 | 13188 ft | 347 kts | 176° |
| 2026-04-16 19:56 | 50.68450 | 128.02239 | 12686 ft | 344 kts | 178° |
| 2026-04-16 19:57 | 50.66100 | 128.02357 | 12178 ft | 334 kts | 191° |
| 2026-04-16 19:57 | 50.63854 | 128.01687 | 11686 ft | 325 kts | 202° |
| 2026-04-16 19:57 | 50.61805 | 128.00323 | 11185 ft | 317 kts | 214° |
| 2026-04-16 19:57 | 50.60020 | 127.98364 | 10709 ft | 310 kts | 225° |
| 2026-04-16 19:58 | 50.58480 | 127.96096 | 10548 ft | 297 kts | 227° |
| 2026-04-16 19:58 | 50.56995 | 127.93933 | 10420 ft | 286 kts | 227° |
| 2026-04-16 19:58 | 50.55556 | 127.91863 | 10293 ft | 275 kts | 226° |
| 2026-04-16 19:58 | 50.54162 | 127.89863 | 10071 ft | 268 kts | 227° |
| 2026-04-16 19:59 | 50.52815 | 127.87919 | 9864 ft | 265 kts | 227° |
| 2026-04-16 19:59 | 50.51463 | 127.85959 | 9729 ft | 265 kts | 227° |
| 2026-04-16 19:59 | 50.50111 | 127.83998 | 9583 ft | 265 kts | 227° |
| 2026-04-16 20:00 | 50.47378 | 127.80035 | 8689 ft | 268 kts | 226° |
| 2026-04-16 20:00 | 50.45994 | 127.78035 | 8267 ft | 268 kts | 226° |
| 2026-04-16 20:00 | 50.44625 | 127.76063 | 7857 ft | 267 kts | 226° |
| 2026-04-16 20:00 | 50.43258 | 127.74092 | 7427 ft | 267 kts | 225° |
| 2026-04-16 20:01 | 50.41891 | 127.72121 | 7004 ft | 267 kts | 225° |
| 2026-04-16 20:01 | 50.40527 | 127.70152 | 6526 ft | 265 kts | 225° |
| 2026-04-16 20:01 | 50.39171 | 127.68198 | 5799 ft | 265 kts | 224° |
| 2026-04-16 20:01 | 50.37839 | 127.66285 | 5305 ft | 257 kts | 224° |
| 2026-04-16 20:02 | 50.36552 | 127.64440 | 5140 ft | 245 kts | 223° |
| 2026-04-16 20:02 | 50.35323 | 127.62681 | 5022 ft | 234 kts | 222° |
| 2026-04-16 20:02 | 50.33992 | 127.61301 | 4917 ft | 229 kts | 206° |
| 2026-04-16 20:02 | 50.32555 | 127.60229 | 4818 ft | 228 kts | 206° |
| 2026-04-16 20:03 | 50.31122 | 127.59157 | 4755 ft | 229 kts | 206° |
| 2026-04-16 20:03 | 50.29801 | 127.57808 | 4660 ft | 227 kts | 227° |
| 2026-04-16 20:03 | 50.28980 | 127.55724 | 4419 ft | 228 kts | 254° |
| 2026-04-16 20:03 | 50.28708 | 127.53303 | 4085 ft | 226 kts | 263° |
| 2026-04-16 20:04 | 50.28492 | 127.50870 | 3766 ft | 226 kts | 264° |
| 2026-04-16 20:04 | 50.28601 | 127.48450 | 3443 ft | 224 kts | 292° |
| 2026-04-16 20:04 | 50.29434 | 127.46467 | 3110 ft | 222 kts | 321° |
| 2026-04-16 20:04 | 50.30785 | 127.45400 | 2841 ft | 217 kts | 347° |
| 2026-04-16 20:05 | 50.32231 | 127.44910 | 2571 ft | 206 kts | 351° |
| 2026-04-16 20:05 | 50.33604 | 127.44487 | 2294 ft | 196 kts | 351° |
| 2026-04-16 20:05 | 50.34916 | 127.44069 | 2041 ft | 189 kts | 351° |
| 2026-04-16 20:05 | 50.36160 | 127.43668 | 1793 ft | 176 kts | 351° |
| 2026-04-16 20:06 | 50.37317 | 127.43294 | 1535 ft | 163 kts | 350° |
| 2026-04-16 20:06 | 50.38391 | 127.42947 | 1314 ft | 150 kts | 349° |
| 2026-04-16 20:06 | 50.39382 | 127.42627 | 1094 ft | 143 kts | 348° |
| 2026-04-16 20:06 | 50.40342 | 127.42294 | 844 ft | 140 kts | 346° |
| 2026-04-16 20:07 | 50.41295 | 127.41996 | 679 ft | 140 kts | 347° |
| 2026-04-16 20:07 | 50.42120 | 127.41734 | 658 ft | 84 kts | 349° |
| 2026-04-16 20:07 | 50.42468 | 127.41623 | 659 ft | 41 kts | 348° |
| 2026-04-16 20:07 | 50.42726 | 127.41541 | 657 ft | 27 kts | 351° |
| 2026-04-16 20:08 | 50.42858 | 127.41522 | 656 ft | 15 kts | 11° |
| 2026-04-16 20:08 | 50.42864 | 127.41489 | 657 ft | 4 kts | 214° |
| 2026-04-16 20:08 | 50.42853 | 127.41443 | 658 ft | 7 kts | 263° |
| 2026-04-16 20:08 | 50.42834 | 127.41355 | 658 ft | 11 kts | 222° |
| 2026-04-16 20:09 | 50.42758 | 127.41263 | 658 ft | 15 kts | 218° |
| 2026-04-16 20:09 | 50.42673 | 127.41158 | 658 ft | 16 kts | 218° |
| 2026-04-16 20:09 | 50.42580 | 127.41044 | 657 ft | 18 kts | 217° |
| 2026-04-16 20:09 | 50.42478 | 127.40936 | 657 ft | 18 kts | 203° |
| 2026-04-16 20:10 | 50.42363 | 127.40899 | 657 ft | 17 kts | 189° |
| 2026-04-16 20:10 | 50.42260 | 127.40895 | 658 ft | 11 kts | 167° |
| 2026-04-16 20:10 | 50.42222 | 127.40908 | 658 ft | 3 kts | 168° |
| 2026-04-16 20:10 | 50.42216 | 127.40910 | 658 ft | 0 kts | 169° |